Latest Weather Observations for Murrurundi Gap

IDN60801

Issued at 11:05 am EST Thursday 30 June 2016 (issued every 30 minutes, with the page automatically refreshed every 10 minutes)

About weather observations | Map of weather stations | Latest weather observations for NSW | Other Formats
Station Details ID: 061392 Name: MURRURUNDI GAP AWS Lat: -31.74 Lon: 150.79 Height: 729.4 m
Data from the previous 72 hours. | See also: Recent months at Murrurundi Gap
Date/Time
EST
Temp
°C
App
Temp
°C
Dew
Point
°C
Rel
Hum
%
Delta-T
°C
Wind Press
QNH
hPa
Press
MSL
hPa
Rain since
9am
mm
Dir  Spd
km/h
Gust
km/h
Spd
kts
Gust
kts
30/11:00am 10.4 -0.6 0.7 51 4.1 NNW 48 59 26 32 1021.7 1021.6 0.0
30/10:30am 9.8 0.8 2.6 61 3.2 NNW 39 54 21 29 1022.2 1022.2 0.0
30/10:00am 8.8 -1.2 0.8 57 3.4 NNW 43 50 23 27 1022.3 1022.3 0.0
30/09:30am 9.2 -0.1 0.9 56 3.5 NNW 39 46 21 25 1022.4 1022.4 0.0
30/09:00am 8.6 0.5 1.3 60 3.1 NNW 33 43 18 23 1022.3 1022.3 0.0
30/08:30am 7.2 -1.0 0.4 62 2.8 NNW 33 37 18 20 1022.2 1022.2 0.0
30/08:00am 6.9 -1.3 0.1 62 2.8 NNW 33 37 18 20 1022.2 1022.2 0.0
30/07:30am 6.3 -1.3 0.4 66 2.4 NNW 30 33 16 18 1022.1 1022.1 0.0
30/07:00am 5.4 -2.3 0.2 69 2.1 NNW 30 33 16 18 1022.1 1022.1 0.0
30/06:30am 5.0 -1.9 0.4 72 1.9 NNW 26 32 14 17 1022.0 1022.0 0.0
30/06:00am 4.6 -1.9 0.4 74 1.7 NNW 24 26 13 14 1021.9 1021.9 0.0
30/05:30am 4.8 -1.7 0.4 73 1.8 NNW 24 26 13 14 1021.8 1021.8 0.0
30/05:00am 4.9 -1.2 0.5 73 1.8 NW 22 26 12 14 1021.9 1021.9 0.0
30/04:30am 5.9 -0.6 0.5 68 2.2 NNW 24 26 13 14 1022.0 1022.0 0.0
30/04:00am 6.5 0.0 0.6 66 2.4 NNW 24 26 13 14 1022.3 1022.3 0.0
30/03:30am 6.9 1.2 0.6 64 2.6 NNW 20 24 11 13 1022.5 1022.5 0.0
30/03:00am 6.8 1.1 0.7 65 2.5 NW 20 28 11 15 1022.8 1022.8 0.0
30/02:30am 6.6 1.5 0.5 65 2.5 NW 17 20 9 11 1023.1 1023.1 0.0
30/02:00am 6.9 1.4 0.4 63 2.7 NW 19 20 10 11 1023.5 1023.5 0.0
30/01:30am 6.8 1.3 0.3 63 2.7 NW 19 22 10 12 1023.8 1023.8 0.0
30/01:00am 7.1 2.0 0.5 63 2.7 NW 17 19 9 10 1024.0 1024.0 0.0
30/12:30am 6.8 1.9 1.7 70 2.2 NW 17 19 9 10 1024.4 1024.5 0.0
30/12:00am 6.7 2.5 1.8 71 2.1 NW 13 17 7 9 1024.7 1024.7 0.0
 
Date/Time
EST
Temp
°C
App
Temp
°C
Dew
Point
°C
Rel
Hum
%
Delta-T
°C
Wind Press
QNH
hPa
Press
MSL
hPa
Rain since
9am
mm
Dir  Spd
km/h
Gust
km/h
Spd
kts
Gust
kts
29/11:30pm 7.0 2.8 1.5 68 2.3 NW 13 15 7 8 1024.9 1024.9 0.0
29/11:00pm 7.7 4.7 1.8 66 2.5 NW 7 11 4 6 1025.0 1025.0 0.0
29/10:30pm 8.1 6.3 1.3 62 2.9 CALM 0 0 0 0 1025.3 1025.4 0.0
29/10:00pm 8.0 5.3 2.7 69 2.3 SE 6 7 3 4 1025.3 1025.4 0.0
29/09:30pm 7.6 4.3 2.3 69 2.3 SE 9 9 5 5 1025.4 1025.5 0.0
29/09:00pm 7.5 4.2 2.2 69 2.3 SE 9 9 5 5 1025.6 1025.7 0.0
29/08:30pm 7.6 4.3 2.5 70 2.2 SE 9 9 5 5 1025.8 1025.9 0.0
29/08:00pm 7.6 4.3 2.5 70 2.2 SE 9 9 5 5 1025.9 1026.0 0.0
29/07:30pm 7.8 4.5 2.7 70 2.2 SE 9 9 5 5 1025.9 1026.0 0.0
29/07:00pm 8.1 5.1 2.1 66 2.6 SSE 7 9 4 5 1025.8 1025.9 0.0
29/06:30pm 8.2 4.9 2.4 67 2.5 SE 9 9 5 5 1025.7 1025.8 0.0
29/06:00pm 8.8 5.9 1.5 60 3.1 WSW 6 7 3 4 1025.6 1025.7 0.0
29/05:30pm 9.1 5.3 1.8 60 3.2 NW 11 11 6 6 1025.5 1025.6 0.0
29/05:00pm 10.1 6.1 2.9 61 3.2 NNW 13 13 7 7 1025.4 1025.5 0.0
29/04:30pm 11.5 7.8 2.5 54 4.1 NNW 11 13 6 7 1025.5 1025.6 0.0
29/04:00pm 12.0 7.9 2.5 52 4.3 NNW 13 17 7 9 1025.5 1025.6 0.0
29/03:30pm 12.2 8.2 2.6 52 4.4 NNW 13 17 7 9 1025.4 1025.5 0.0
29/03:00pm 12.8 9.1 2.1 48 4.8 NNW 11 15 6 8 1025.4 1025.5 0.0
29/02:30pm 12.7 8.7 2.6 50 4.6 N 13 17 7 9 1025.3 1025.4 0.0
29/02:00pm 13.0 9.7 0.4 42 5.5 E 7 9 4 5 1025.4 1025.5 0.0
29/01:30pm 11.6 7.6 -2.6 37 5.7 SE 9 11 5 6 1025.5 1025.6 0.0
29/01:00pm 10.9 6.1 -2.8 38 5.4 SE 13 15 7 8 1025.7 1025.8 0.0
29/12:30pm 10.4 5.8 -1.0 45 4.7 SSE 13 17 7 9 1026.2 1026.2 0.0
29/12:00pm 10.4 6.0 0.4 50 4.2 SE 13 17 7 9 1026.5 1026.6 0.0
29/11:30am 9.9 5.8 2.5 60 3.3 SE 13 17 7 9 1026.9 1027.0 0.0
29/11:00am 8.7 4.7 2.7 66 2.6 ESE 13 17 7 9 1027.5 1027.5 0.0
29/10:30am 7.3 2.8 2.2 70 2.2 SE 15 20 8 11 1027.8 1027.9 0.0
29/10:00am 6.2 0.9 2.1 75 1.7 SE 19 22 10 12 1027.8 1027.9 0.0
29/09:30am 5.3 0.4 1.8 78 1.5 SE 17 20 9 11 1027.8 1027.9 0.0
29/09:00am 4.4 -0.9 1.8 83 1.1 SE 19 22 10 12 1027.6 1027.6 0.0
29/08:30am 3.9 -1.2 0.9 81 1.2 SE 17 19 9 10 1027.7 1027.8 0.0
29/08:00am 3.4 -0.1 1.1 85 0.9 SE 9 11 5 6 1027.8 1027.9 0.0
29/07:30am 2.3 -1.7 0.4 87 0.7 SE 11 13 6 7 1027.5 1027.5 0.0
29/07:00am 2.2 -1.8 0.6 89 0.6 SE 11 13 6 7 1027.0 1027.1 0.0
29/06:30am 2.4 -2.0 0.5 87 0.7 SE 13 15 7 8 1026.8 1026.9 0.0
29/06:00am 2.5 -1.9 0.4 86 0.8 SE 13 15 7 8 1026.6 1026.7 0.0
29/05:30am 2.5 -1.8 0.7 88 0.7 SE 13 15 7 8 1026.5 1026.6 0.0
29/05:00am 2.6 -1.7 0.8 88 0.7 SE 13 15 7 8 1026.3 1026.3 0.0
29/04:30am 2.2 -2.2 0.6 89 0.6 SE 13 13 7 7 1026.2 1026.2 0.0
29/04:00am 2.9 -1.1 0.8 86 0.8 SE 11 13 6 7 1026.1 1026.1 0.0
29/03:30am 2.1 -2.3 0.3 88 0.7 SSE 13 15 7 8 1026.2 1026.2 0.0
29/03:00am 3.1 -0.9 0.7 84 0.9 SE 11 13 6 7 1026.3 1026.3 0.0
29/02:30am 3.5 0.0 1.2 85 0.9 SE 9 11 5 6 1026.5 1026.6 0.0
29/02:00am 3.2 -0.7 1.3 87 0.8 SSE 11 13 6 7 1026.3 1026.3 0.0
29/01:30am 2.9 -1.0 1.3 89 0.6 SSE 11 13 6 7 1026.4 1026.4 0.0
29/01:00am 3.4 -0.5 1.1 85 0.9 SE 11 13 6 7 1026.6 1026.7 0.0
29/12:30am 4.2 0.4 1.7 84 1.0 SSE 11 13 6 7 1026.7 1026.8 0.0
29/12:00am 3.6 -0.2 1.5 86 0.9 SSE 11 13 6 7 1026.8 1026.9 0.0
 
Date/Time
EST
Temp
°C
App
Temp
°C
Dew
Point
°C
Rel
Hum
%
Delta-T
°C
Wind Press
QNH
hPa
Press
MSL
hPa
Rain since
9am
mm
Dir  Spd
km/h
Gust
km/h
Spd
kts
Gust
kts
28/11:30pm 4.3 0.4 1.3 81 1.2 SE 11 13 6 7 1027.0 1027.1 0.0
28/11:00pm 5.0 1.5 1.5 78 1.4 SE 9 9 5 5 1027.3 1027.4 0.0
28/10:30pm 5.0 1.9 1.5 78 1.5 SE 7 9 4 5 1027.3 1027.4 0.0
28/10:00pm 5.0 1.6 1.8 80 1.3 SE 9 13 5 7 1027.2 1027.3 0.0
28/09:30pm 5.2 1.0 1.9 79 1.4 SE 13 15 7 8 1027.0 1027.1 0.0
28/09:00pm 5.6 2.2 1.9 77 1.5 SE 9 11 5 6 1026.9 1027.0 0.0
28/08:30pm 5.4 2.0 1.9 78 1.5 SE 9 13 5 7 1026.9 1027.0 0.0
28/08:00pm 5.1 0.9 1.9 80 1.3 SE 13 17 7 9 1026.7 1026.8 0.0
28/07:30pm 5.5 1.8 2.2 79 1.4 ESE 11 13 6 7 1026.5 1026.6 0.0
28/07:00pm 5.9 2.9 2.0 76 1.6 ESE 7 11 4 6 1026.2 1026.2 0.0
28/06:30pm 7.0 4.2 2.1 71 2.1 WSW 6 7 3 4 1025.9 1026.0 0.0
28/06:00pm 7.3 4.7 3.4 76 1.7 NNW 6 9 3 5 1025.6 1025.7 0.0
28/05:30pm 7.4 4.9 3.8 78 1.6 NW 6 7 3 4 1025.2 1025.2 0.0
28/05:00pm 7.7 3.8 3.6 75 1.8 NNW 13 17 7 9 1024.8 1024.8 0.0
28/04:30pm 8.6 4.8 4.0 73 2.1 NNW 13 17 7 9 1024.6 1024.6 0.0
28/04:00pm 9.7 5.4 3.4 65 2.8 N 15 17 8 9 1024.1 1024.2 0.0
28/03:30pm 9.9 4.9 3.6 65 2.9 NNW 19 22 10 12 1023.9 1023.9 0.0
28/03:00pm 9.0 4.7 3.4 68 2.5 NNW 15 17 8 9 1023.7 1023.7 0.0
28/02:30pm 10.2 6.1 4.1 66 2.8 NNW 15 22 8 12 1023.5 1023.5 0.0
28/02:00pm 9.5 6.5 3.9 68 2.6 N 9 15 5 8 1023.5 1023.5 0.0
28/01:30pm 8.1 4.6 3.6 73 2.0 NNW 11 15 6 8 1023.5 1023.5 0.0
28/01:00pm 8.3 4.4 3.6 72 2.1 N 13 17 7 9 1023.4 1023.4 0.0
28/12:30pm 8.4 4.9 3.3 70 2.3 N 11 17 6 9 1023.5 1023.5 0.0
28/12:00pm 8.1 4.9 3.2 71 2.2 NNW 9 15 5 8 1023.7 1023.7 0.0
28/11:30am 7.9 4.7 3.2 72 2.1 NNW 9 15 5 8 1024.0 1024.0 0.0
28/11:00am 7.5 4.3 2.8 72 2.1 NNW 9 13 5 7 1024.3 1024.4 0.0
28/10:30am 6.4 3.0 2.1 74 1.8 N 9 15 5 8 1024.2 1024.3 0.0
28/10:00am 5.7 1.6 2.5 80 1.4 NNW 13 17 7 9 1024.1 1024.2 0.0
28/09:30am 4.5 -0.5 1.5 81 1.2 NNW 17 19 9 10 1023.9 1023.9 0.0
28/09:00am 4.2 0.4 1.9 85 1.0 NNW 11 13 6 7 1023.7 1023.7 1.8
28/08:30am 2.9 -1.7 1.3 89 0.6 NW 15 17 8 9 1023.6 1023.6 1.8
28/08:00am 1.6 -3.2 0.1 90 0.6 NW 15 19 8 10 1023.1 1023.1 1.8
28/07:30am 1.8 -1.8 0.5 91 0.5 NW 9 13 5 7 1022.7 1022.7 1.8
28/07:00am 1.4 -2.3 0.1 91 0.5 NNW 9 13 5 7 1022.4 1022.4 1.8
28/06:30am 1.7 -2.0 -0.1 88 0.7 NNW 9 13 5 7 1021.8 1021.8 1.8
28/06:00am 1.6 -2.4 0.3 91 0.5 NNW 11 13 6 7 1021.4 1021.4 1.8
28/05:30am 1.8 -2.2 0.5 91 0.5 NNW 11 15 6 8 1020.9 1020.9 1.8
28/05:00am 1.8 -2.5 0.9 94 0.4 NNW 13 17 7 9 1020.6 1020.6 1.8
28/04:30am 1.2 -3.6 0.5 95 0.3 NNW 15 17 8 9 1020.3 1020.2 1.8
28/04:00am 1.8 -2.9 0.9 94 0.4 N 15 17 8 9 1020.2 1020.1 1.8
28/03:30am 1.8 -2.5 0.8 93 0.4 N 13 17 7 9 1020.0 1020.0 1.8
28/03:00am 2.1 -2.6 1.1 93 0.4 N 15 19 8 10 1020.0 1020.0 1.8
28/02:30am 2.2 -2.4 1.5 95 0.3 N 15 19 8 10 1019.9 1019.9 1.8
28/02:00am 2.2 -2.4 1.8 97 0.2 N 15 19 8 10 1019.9 1019.9 1.8
28/01:30am 2.1 -2.1 1.7 97 0.2 NNW 13 17 7 9 1019.6 1019.6 1.8
28/01:00am 2.5 -2.5 1.5 93 0.4 NNW 17 20 9 11 1019.5 1019.5 1.8
28/12:30am 2.7 -3.2 1.5 92 0.5 NNW 22 28 12 15 1019.1 1019.0 1.8
28/12:00am 3.0 -2.4 1.1 87 0.8 NNW 19 22 10 12 1019.2 1019.1 1.8
 
Date/Time
EST
Temp
°C
App
Temp
°C
Dew
Point
°C
Rel
Hum
%
Delta-T
°C
Wind Press
QNH
hPa
Press
MSL
hPa
Rain since
9am
mm
Dir  Spd
km/h
Gust
km/h
Spd
kts
Gust
kts
27/11:30pm 2.9 -2.1 1.1 88 0.7 N 17 20 9 11 1019.1 1019.0 1.8
27/11:03pm 3.0 -2.0 1.2 88 0.7 NNW 17 22 9 12 1019.1 1019.0 1.8
27/11:00pm 3.0 -2.4 1.1 87 0.8 NNW 19 22 10 12 1019.1 1019.0 1.8
27/10:30pm 2.9 -2.5 1.0 87 0.8 N 19 22 10 12 1018.9 1018.8 1.8
27/10:27pm 3.0 -2.6 0.9 86 0.8 N 20 26 11 14 1018.9 1018.8 1.8
27/10:00pm 3.2 -1.8 1.1 86 0.8 NNW 17 20 9 11 1018.9 1018.8 1.8
27/09:30pm 3.1 -1.9 1.2 87 0.8 N 17 24 9 13 1018.4 1018.4 1.8
27/09:00pm 3.0 -2.0 1.2 88 0.7 N 17 22 9 12 1018.4 1018.4 1.8
27/08:30pm 2.9 -2.1 1.3 89 0.6 N 17 22 9 12 1018.3 1018.3 1.8
27/08:00pm 3.2 -2.0 2.3 94 0.4 N 19 24 10 13 1018.2 1018.2 1.8
27/07:57pm 3.1 -1.8 2.2 94 0.4 N 17 20 9 11 1018.2 1018.2 1.8
27/07:30pm 3.3 -0.7 3.0 98 0.1 NNW 13 20 7 11 1018.3 1018.3 1.6
27/07:00pm 3.2 -1.5 3.1 99 0.0 N 17 20 9 11 1017.9 1017.8 1.6
27/06:30pm 3.2 -1.5 3.1 99 0.0 N 17 22 9 12 1017.5 1017.4 1.6
27/06:00pm 3.1 -3.0 2.8 98 0.1 N 24 30 13 16 1017.0 1017.0 1.6
27/05:56pm 3.1 -3.0 2.8 98 0.1 N 24 32 13 17 1016.9 1016.8 1.6
27/05:50pm 3.1 -3.0 2.7 97 0.2 N 24 32 13 17 1016.8 1016.7 1.6
27/05:30pm 3.3 -3.2 2.4 94 0.4 N 26 33 14 18 1016.5 1016.4 1.6
27/05:00pm 3.3 -1.2 2.3 93 0.4 NNW 15 20 8 11 1016.5 1016.4 1.6
27/04:30pm 3.2 -1.7 2.2 93 0.4 NW 17 24 9 13 1016.1 1016.0 1.6
27/04:28pm 3.3 -2.0 2.1 92 0.5 NW 19 24 10 13 1016.1 1016.0 1.6
27/04:17pm 3.5 -2.4 2.0 90 0.6 NW 22 28 12 15 1016.0 1015.9 1.6
27/04:01pm 3.5 -1.7 2.5 93 0.4 NW 19 30 10 16 1015.9 1015.8 1.6
27/04:00pm 3.5 -1.7 2.5 93 0.4 NW 19 30 10 16 1015.9 1015.8 1.6
27/03:59pm 3.5 -1.3 2.6 94 0.4 NW 17 24 9 13 1015.9 1015.8 1.6
27/03:50pm 3.3 -1.5 2.6 95 0.3 NNW 17 22 9 12 1015.8 1015.6 1.6
27/03:34pm 3.4 -1.4 2.5 94 0.4 NW 17 30 9 16 1015.5 1015.4 1.6
27/03:30pm 3.4 -1.8 2.5 94 0.4 NW 19 30 10 16 1015.4 1015.3 1.6
27/03:28pm 3.4 -1.8 2.4 93 0.4 NW 19 30 10 16 1015.4 1015.3 1.6
27/03:01pm 3.7 -1.3 3.6 99 0.0 NW 19 26 10 14 1015.0 1014.9 1.6
27/03:00pm 3.7 -1.3 3.6 99 0.0 NW 19 26 10 14 1015.0 1014.9 1.6
27/02:30pm 3.7 -3.0 3.6 99 0.0 NNW 28 37 15 20 1014.4 1014.2 1.2
27/02:00pm 3.7 -2.6 3.6 99 0.0 NNW 26 33 14 18 1014.1 1014.0 0.8
27/01:30pm 3.6 -2.5 3.0 96 0.3 NNW 24 32 13 17 1014.1 1014.0 0.4
27/01:26pm 3.6 -2.5 3.0 96 0.3 NNW 24 32 13 17 1014.1 1014.0 0.2
27/01:00pm 3.7 -3.1 3.0 95 0.3 NNW 28 35 15 19 1014.4 1014.2 0.2
27/12:30pm 3.4 -3.7 3.3 99 0.0 NNW 30 35 16 19 1014.5 1014.3 0.2
27/12:00pm 3.3 -2.7 3.2 99 0.0 N 24 32 13 17 1014.8 1014.7 0.2
27/11:45am 3.0 -3.5 2.9 99 0.0 NNW 26 32 14 17 1014.9 1014.8 0.2
27/11:30am 2.7 -3.4 2.6 99 0.0 NNW 24 32 13 17 1015.1 1015.0 0.2
27/11:26am 2.7 -3.4 2.6 99 0.0 NNW 24 32 13 17 1015.2 1015.1 0.2
27/11:24am 2.8 -2.9 2.7 99 0.0 NNW 22 32 12 17 1015.2 1015.1 0.2

Other Formats:

Comma delimited format used in spreadsheet applications
http://www.bom.gov.au/fwo/IDN60801/IDN60801.95747.axf

JavaScript Object Notation format (JSON) in row-major order
http://www.bom.gov.au/fwo/IDN60801/IDN60801.95747.json